Main page
Satellite images 15-day forecastsClimateMarine weather Cyclones Lightning AirportsFAQ Newsletter About
Weather : Europe Africa North America South America Asia Australia-Oceania Others
Languages Contact

Baia Mare, Romania

latitude: 47-40N, longitude: 023-35E, elevation: 218 m


METAR: LRBM 022300Z AUTO 06004KT 030V090 9999 FEW014 SCT210 23/11 Q1013
short-TAF: LRBM 022100Z 0221/0303 CNL
long-TAF: out of date (1084 hours)

Time: 02:40 (23:40 UTC)

Current weather observation

The report was made 40 minutes ago, at 23:00 UTC  
Wind 04 kt from the East/Northeast, varying between North/Northeast and East
Temperature 23°C
Humidity 47%
Pressure 1013 hPa
Visibility 10 km or more
Few clouds at a height of 1400 ft
Scattered clouds at a height of 21000 ft

Change units

The information on this site is subject to a disclaimer
Weather : Europe Africa North America South America Asia Australia-Oceania Others
Satellite images 15-day forecastsClimateMarine weather Cyclones Lightning AirportsFAQ Languages Contact Newsletter About